createdAt,value
2022-10-24T00:01:41.664Z,10.23
2022-10-24T00:04:10.079Z,11.40
2022-10-24T00:06:42.683Z,10.63
2022-10-24T00:09:11.363Z,11.85
2022-10-24T00:11:44.365Z,10.90
2022-10-24T00:14:12.988Z,10.77
2022-10-24T00:16:41.152Z,11.38
2022-10-24T00:19:09.371Z,12.02
2022-10-24T00:21:37.535Z,11.02
2022-10-24T00:24:06.368Z,11.20
2022-10-24T00:26:35.367Z,12.13
2022-10-24T00:29:05.635Z,10.35
2022-10-24T00:31:37.187Z,12.00
2022-10-24T00:34:05.953Z,9.32
2022-10-24T00:36:36.986Z,11.05
2022-10-24T00:39:05.657Z,11.35
2022-10-24T00:41:35.997Z,9.10
2022-10-24T00:44:24.560Z,9.82
2022-10-24T00:46:56.598Z,12.00
2022-10-24T00:49:28.337Z,11.38
2022-10-24T00:52:00.815Z,10.20
2022-10-24T00:54:29.263Z,10.32
2022-10-24T00:57:03.972Z,9.55
2022-10-24T00:59:36.074Z,11.27
2022-10-24T01:02:04.755Z,10.57
2022-10-24T01:04:32.875Z,9.52
2022-10-24T01:07:16.837Z,9.68
2022-10-24T01:10:08.468Z,10.63
2022-10-24T01:12:46.220Z,10.98
2022-10-24T01:15:22.058Z,10.10
2022-10-24T01:17:57.783Z,10.25
2022-10-24T01:20:50.298Z,9.48
2022-10-24T01:23:52.769Z,9.52
2022-10-24T01:27:00.757Z,8.88
2022-10-24T01:29:45.428Z,11.05
2022-10-24T01:32:30.919Z,10.27
2022-10-24T01:35:04.641Z,10.13
2022-10-24T01:37:38.667Z,10.48
2022-10-24T01:40:12.280Z,11.23
2022-10-24T01:42:44.152Z,10.13
2022-10-24T01:45:19.003Z,12.52
2022-10-24T01:47:52.236Z,11.50
2022-10-24T01:50:23.094Z,10.30
2022-10-24T01:52:52.193Z,10.60
2022-10-24T01:55:23.557Z,9.75
2022-10-24T01:57:51.793Z,9.95
2022-10-24T02:00:24.312Z,10.57
2022-10-24T02:02:57.736Z,9.55
2022-10-24T02:05:28.281Z,11.27
2022-10-24T02:08:01.133Z,9.48
2022-10-24T02:10:33.887Z,9.10
2022-10-24T02:13:17.991Z,9.57
2022-10-24T02:15:51.460Z,9.40
2022-10-24T02:18:23.056Z,9.38
2022-10-24T02:21:02.428Z,8.60
2022-10-24T02:23:40.716Z,12.85
2022-10-24T02:26:31.855Z,10.80
2022-10-24T02:31:35.403Z,9.65
2022-10-24T02:34:09.300Z,10.95
2022-10-24T02:36:40.278Z,10.35
2022-10-24T02:41:40.155Z,10.00
2022-10-24T02:44:10.192Z,8.73
2022-10-24T02:46:40.653Z,9.25
2022-10-24T02:49:09.155Z,9.45
2022-10-24T02:51:41.165Z,10.65
2022-10-24T02:54:11.168Z,10.43
2022-10-24T02:56:43.364Z,9.43
2022-10-24T02:59:11.690Z,10.63
2022-10-24T03:01:41.351Z,8.98
2022-10-24T03:04:12.302Z,10.05
2022-10-24T03:09:08.440Z,8.77
2022-10-24T03:11:39.553Z,8.93
2022-10-24T03:14:07.983Z,11.40
2022-10-24T03:16:36.235Z,9.65
2022-10-24T03:19:05.826Z,10.95
2022-10-24T03:21:34.107Z,9.52
2022-10-24T03:24:02.357Z,9.18
2022-10-24T03:26:45.918Z,8.63
2022-10-24T03:29:14.163Z,9.65
2022-10-24T03:31:45.138Z,10.32
2022-10-24T03:36:42.835Z,9.38
2022-10-24T03:39:13.934Z,9.88
2022-10-24T03:41:42.090Z,9.55
2022-10-24T03:44:10.206Z,9.57
2022-10-24T03:46:38.490Z,9.55
2022-10-24T03:49:06.713Z,10.13
2022-10-24T03:51:36.333Z,9.80
2022-10-24T03:54:05.016Z,9.13
2022-10-24T03:56:33.325Z,10.50
2022-10-24T03:59:01.476Z,9.10
2022-10-24T04:01:32.976Z,9.13
2022-10-24T04:04:01.305Z,9.32
2022-10-24T04:06:31.367Z,9.68
2022-10-24T04:09:03.758Z,8.95
2022-10-24T04:11:34.756Z,10.00
2022-10-24T04:16:35.649Z,9.25
2022-10-24T04:19:04.159Z,8.60
2022-10-24T04:21:32.345Z,8.93
2022-10-24T04:24:04.949Z,9.05
2022-10-24T04:26:33.160Z,8.05
2022-10-24T04:29:01.359Z,8.63
2022-10-24T04:31:29.682Z,10.07
2022-10-24T04:33:57.871Z,8.90
2022-10-24T04:36:26.120Z,9.60
2022-10-24T04:38:54.402Z,8.77
2022-10-24T04:41:23.990Z,8.75
2022-10-24T04:43:55.120Z,8.88
2022-10-24T04:46:23.301Z,9.68
2022-10-24T04:48:51.491Z,8.70
2022-10-24T04:51:22.287Z,9.15
2022-10-24T04:53:50.835Z,8.30
2022-10-24T04:56:19.543Z,9.93
2022-10-24T04:58:54.296Z,10.02
2022-10-24T05:01:29.015Z,9.15
2022-10-24T05:03:57.268Z,9.25
2022-10-24T05:06:25.641Z,8.90
2022-10-24T05:08:53.844Z,9.60
2022-10-24T05:11:22.056Z,8.70
2022-10-24T05:13:51.668Z,9.77
2022-10-24T05:16:19.806Z,8.40
2022-10-24T05:18:48.207Z,9.55
2022-10-24T05:21:19.674Z,9.25
2022-10-24T05:23:47.871Z,8.88
2022-10-24T05:26:21.846Z,8.10
2022-10-24T05:28:52.621Z,10.55
2022-10-24T05:31:25.610Z,11.50
2022-10-24T05:33:58.060Z,8.80
2022-10-24T05:36:30.350Z,9.30
2022-10-24T05:38:58.534Z,13.02
2022-10-24T05:41:26.815Z,10.23
2022-10-24T05:43:56.289Z,16.02
2022-10-24T05:46:24.423Z,15.75
2022-10-24T05:48:52.660Z,14.77
2022-10-24T05:51:20.810Z,12.10
2022-10-24T05:53:52.042Z,11.73
2022-10-24T05:56:20.243Z,12.55
2022-10-24T05:58:48.424Z,12.15
2022-10-24T06:01:18.275Z,9.32
2022-10-24T06:03:46.719Z,18.92
2022-10-24T06:06:14.888Z,15.20
2022-10-24T06:08:43.180Z,14.00
2022-10-24T06:11:12.336Z,13.80
2022-10-24T06:13:40.967Z,14.40
2022-10-24T06:16:10.515Z,12.88
2022-10-24T06:18:40.922Z,15.25
2022-10-24T06:21:15.983Z,15.43
2022-10-24T06:23:44.151Z,11.13
2022-10-24T06:26:14.620Z,14.95
2022-10-24T06:28:42.977Z,14.35
2022-10-24T06:31:12.943Z,18.00
2022-10-24T06:33:42.501Z,13.27
2022-10-24T06:36:14.545Z,13.15
2022-10-24T06:38:45.754Z,12.13
2022-10-24T06:41:17.082Z,16.65
2022-10-24T06:43:45.375Z,21.65
2022-10-24T06:46:16.596Z,16.88
2022-10-24T06:48:46.123Z,15.23
2022-10-24T06:51:16.404Z,14.30
2022-10-24T06:53:44.613Z,14.43
2022-10-24T06:56:13.022Z,12.55
2022-10-24T06:58:41.518Z,13.20
2022-10-24T07:01:15.123Z,13.45
2022-10-24T07:03:43.525Z,12.80
2022-10-24T07:09:09.218Z,12.20
2022-10-24T07:11:39.727Z,14.30
2022-10-24T07:14:09.387Z,14.20
2022-10-24T07:16:38.229Z,13.25
2022-10-24T07:19:12.661Z,11.05
2022-10-24T07:21:44.748Z,12.18
2022-10-24T07:24:13.608Z,13.30
2022-10-24T07:26:42.010Z,15.80
2022-10-24T07:29:10.494Z,14.15
2022-10-24T07:31:38.653Z,13.27
2022-10-24T07:34:09.700Z,14.02
2022-10-24T07:36:41.502Z,11.13
2022-10-24T07:39:14.317Z,12.38
2022-10-24T07:41:43.204Z,13.15
2022-10-24T07:44:11.587Z,13.57
2022-10-24T07:46:39.847Z,13.07
2022-10-24T07:49:09.388Z,10.00
2022-10-24T07:51:37.534Z,9.75
2022-10-24T07:54:09.031Z,10.65
2022-10-24T07:56:38.610Z,10.27
2022-10-24T07:59:09.386Z,8.45
2022-10-24T08:01:41.927Z,10.23
2022-10-24T08:04:11.368Z,12.13
2022-10-24T08:06:40.893Z,9.85
2022-10-24T08:09:10.639Z,9.20
2022-10-24T08:11:41.307Z,9.60
2022-10-24T08:14:09.487Z,9.13
2022-10-24T08:16:38.416Z,12.25
2022-10-24T08:19:06.554Z,12.52
2022-10-24T08:21:37.455Z,12.55
2022-10-24T08:26:44.564Z,10.23
2022-10-24T08:29:21.935Z,12.93
2022-10-24T08:31:51.461Z,9.55
2022-10-24T08:34:20.516Z,13.07
2022-10-24T08:36:51.886Z,10.02
2022-10-24T08:39:22.711Z,12.30
2022-10-24T08:41:57.971Z,8.02
2022-10-24T08:44:31.472Z,11.85
2022-10-24T08:47:04.246Z,9.18
2022-10-24T08:49:39.505Z,9.75
2022-10-24T08:52:20.615Z,11.57
2022-10-24T08:54:51.536Z,11.55
2022-10-24T08:57:25.075Z,8.70
2022-10-24T09:00:00.614Z,10.20
2022-10-24T09:02:46.495Z,9.43
2022-10-24T09:05:24.529Z,10.80
2022-10-24T09:07:58.099Z,9.60
2022-10-24T09:10:44.537Z,9.93
2022-10-24T09:13:17.076Z,9.43
2022-10-24T09:15:48.501Z,9.52
2022-10-24T09:18:22.303Z,11.20
2022-10-24T09:20:52.155Z,9.48
2022-10-24T09:23:21.615Z,9.35
2022-10-24T09:25:53.392Z,8.20
2022-10-24T09:28:23.598Z,9.73
2022-10-24T09:31:00.846Z,12.43
2022-10-24T09:33:35.114Z,9.30
2022-10-24T09:36:17.995Z,11.20
2022-10-24T09:38:47.040Z,10.10
2022-10-24T09:41:21.664Z,10.65
2022-10-24T09:43:56.203Z,11.00
2022-10-24T09:46:27.502Z,9.38
2022-10-24T09:48:58.466Z,12.68
2022-10-24T09:51:41.088Z,11.30
2022-10-24T09:54:27.063Z,14.02
2022-10-24T09:56:57.982Z,14.65
2022-10-24T10:02:21.741Z,11.93
2022-10-24T10:05:24.105Z,13.00
2022-10-24T10:08:00.974Z,10.57
2022-10-24T10:10:42.126Z,13.73
2022-10-24T10:13:24.373Z,13.18
2022-10-24T10:15:56.642Z,12.57
2022-10-24T10:18:32.253Z,11.07
2022-10-24T10:21:04.241Z,13.40
2022-10-24T10:23:34.383Z,12.30
2022-10-24T10:26:17.871Z,13.40
2022-10-24T10:29:02.095Z,13.13
2022-10-24T10:31:50.512Z,12.43
2022-10-24T10:34:41.937Z,17.45
2022-10-24T10:37:28.470Z,13.88
2022-10-24T10:40:22.222Z,13.27
2022-10-24T10:43:07.653Z,13.77
2022-10-24T10:45:48.456Z,12.90
2022-10-24T10:48:39.622Z,12.30
2022-10-24T10:53:59.289Z,13.30
2022-10-24T10:56:36.200Z,14.95
2022-10-24T10:59:19.724Z,15.32
2022-10-24T11:01:57.142Z,13.13
2022-10-24T11:04:34.649Z,15.00
2022-10-24T11:07:11.436Z,13.48
2022-10-24T11:09:44.190Z,16.63
2022-10-24T11:12:18.704Z,14.95
2022-10-24T11:14:57.704Z,16.23
2022-10-24T11:17:36.427Z,12.77
2022-10-24T11:20:32.435Z,18.10
2022-10-24T11:23:06.995Z,14.25
2022-10-24T11:25:39.896Z,14.45
2022-10-24T11:31:02.168Z,14.35
2022-10-24T11:33:47.420Z,14.88
2022-10-24T11:36:22.924Z,16.75
2022-10-24T11:38:57.250Z,15.40
2022-10-24T11:41:40.590Z,15.88
2022-10-24T11:44:22.020Z,17.02
2022-10-24T11:47:00.898Z,14.38
2022-10-24T11:49:39.186Z,16.15
2022-10-24T11:52:16.281Z,15.90
2022-10-24T11:54:52.032Z,20.15
2022-10-24T11:57:31.161Z,16.58
2022-10-24T12:00:00.965Z,15.93
2022-10-24T12:03:15.568Z,16.38
2022-10-24T12:05:56.467Z,17.48
2022-10-24T12:09:05.403Z,15.48
2022-10-24T12:11:58.149Z,20.85
2022-10-24T12:14:54.703Z,15.35
2022-10-24T12:17:42.499Z,15.35
2022-10-24T12:20:16.215Z,17.90
2022-10-24T12:22:46.074Z,17.02
2022-10-24T12:25:29.459Z,18.88
2022-10-24T12:27:59.840Z,18.63
2022-10-24T12:30:31.115Z,40.03
2022-10-24T12:33:09.477Z,18.17
2022-10-24T12:35:54.579Z,17.67
2022-10-24T12:39:09.081Z,19.38
2022-10-24T12:41:43.798Z,18.73
2022-10-24T12:44:43.383Z,16.55
2022-10-24T12:47:41.815Z,17.67
2022-10-24T12:50:47.257Z,15.90
2022-10-24T12:53:31.245Z,19.38
2022-10-24T12:59:12.019Z,17.60
2022-10-24T13:01:40.298Z,20.10
2022-10-24T13:04:41.841Z,17.85
2022-10-24T13:07:50.769Z,19.58
2022-10-24T13:10:31.711Z,20.17
2022-10-24T13:13:31.279Z,18.88
2022-10-24T13:16:08.141Z,21.42
2022-10-24T13:18:47.699Z,20.38
2022-10-24T13:21:20.901Z,20.15
2022-10-24T13:23:50.143Z,17.73
2022-10-24T13:26:39.348Z,18.48
2022-10-24T13:29:12.974Z,18.63
2022-10-24T13:31:49.298Z,18.40
2022-10-24T13:34:30.383Z,20.80
2022-10-24T13:39:42.453Z,18.50
2022-10-24T13:42:32.941Z,20.90
2022-10-24T13:45:05.970Z,18.25
2022-10-24T13:47:46.580Z,17.35
2022-10-24T13:50:18.841Z,16.70
2022-10-24T13:52:50.093Z,16.40
2022-10-24T13:55:25.147Z,16.40
2022-10-24T13:57:56.536Z,16.70
2022-10-24T14:00:27.623Z,18.50
2022-10-24T14:02:59.784Z,18.55
2022-10-24T14:05:34.286Z,18.40
2022-10-24T14:08:06.311Z,18.17
2022-10-24T14:10:35.011Z,21.23
2022-10-24T14:13:04.041Z,25.65
2022-10-24T14:15:33.962Z,23.92
2022-10-24T14:18:08.465Z,24.08
2022-10-24T14:20:38.650Z,18.08
2022-10-24T14:23:26.693Z,30.20
2022-10-24T14:25:57.849Z,28.45
2022-10-24T14:28:29.235Z,22.65
2022-10-24T14:30:59.459Z,22.77
2022-10-24T14:33:30.760Z,23.87
2022-10-24T14:36:01.428Z,24.33
2022-10-24T14:38:30.387Z,28.65
2022-10-24T14:41:09.140Z,21.50
2022-10-24T14:43:42.049Z,35.70
2022-10-24T14:46:28.103Z,26.20
2022-10-24T14:48:57.867Z,20.23
2022-10-24T14:51:31.982Z,19.38
2022-10-24T14:54:03.336Z,23.17
2022-10-24T14:56:34.107Z,20.15
2022-10-24T14:59:06.483Z,21.20
2022-10-24T15:01:34.849Z,20.30
2022-10-24T15:04:06.573Z,21.58
2022-10-24T15:06:40.034Z,23.95
2022-10-24T15:09:17.883Z,22.17
2022-10-24T15:11:48.913Z,22.05
2022-10-24T15:14:39.952Z,23.38
2022-10-24T15:17:26.924Z,21.08
2022-10-24T15:20:01.858Z,19.17
2022-10-24T15:22:32.757Z,19.65
2022-10-24T15:27:32.529Z,18.77
2022-10-24T15:30:00.745Z,22.55
2022-10-24T15:32:28.937Z,20.23
2022-10-24T15:34:57.296Z,21.67
2022-10-24T15:37:28.627Z,19.13
2022-10-24T15:39:56.964Z,19.10
2022-10-24T15:42:28.111Z,23.10
2022-10-24T15:44:56.337Z,19.27
2022-10-24T15:47:24.610Z,20.70
2022-10-24T15:49:52.854Z,24.67
2022-10-24T15:52:21.027Z,22.02
2022-10-24T15:54:50.748Z,25.20
2022-10-24T15:57:20.177Z,21.50
2022-10-24T15:59:48.444Z,28.63
2022-10-24T16:02:20.879Z,20.48
2022-10-24T16:04:50.076Z,24.40
2022-10-24T16:07:18.326Z,28.65
2022-10-24T16:09:46.982Z,23.45
2022-10-24T16:12:16.541Z,23.95
2022-10-24T16:14:44.706Z,22.27
2022-10-24T16:17:12.882Z,27.35
2022-10-24T16:19:41.066Z,26.52
2022-10-24T16:22:11.016Z,22.48
2022-10-24T16:24:39.235Z,21.10
2022-10-24T16:27:08.142Z,22.98
2022-10-24T16:29:37.697Z,24.63
2022-10-24T16:32:06.019Z,23.15
2022-10-24T16:34:34.388Z,25.60
2022-10-24T16:37:02.607Z,22.02
2022-10-24T16:39:30.999Z,23.38
2022-10-24T16:41:59.695Z,24.83
2022-10-24T16:44:31.759Z,23.13
2022-10-24T16:47:01.381Z,20.98
2022-10-24T16:49:31.198Z,21.98
2022-10-24T16:52:02.985Z,19.42
2022-10-24T16:54:32.373Z,20.48
2022-10-24T16:57:01.034Z,22.33
2022-10-24T16:59:29.777Z,22.50
2022-10-24T17:01:58.434Z,22.05
2022-10-24T17:04:32.842Z,19.45
2022-10-24T17:07:04.429Z,20.02
2022-10-24T17:09:33.055Z,24.15
2022-10-24T17:12:01.225Z,19.60
2022-10-24T17:14:29.555Z,18.88
2022-10-24T17:16:57.876Z,18.50
2022-10-24T17:19:31.376Z,21.50
2022-10-24T17:22:00.653Z,18.50
2022-10-24T17:24:29.684Z,17.38
2022-10-24T17:26:59.528Z,17.85
2022-10-24T17:29:31.703Z,20.33
2022-10-24T17:32:03.762Z,20.65
2022-10-24T17:34:34.404Z,20.95
2022-10-24T17:37:11.063Z,20.48
2022-10-24T17:39:47.149Z,16.83
2022-10-24T17:42:15.867Z,17.75
2022-10-24T17:44:53.569Z,19.23
2022-10-24T17:47:22.866Z,20.80
2022-10-24T17:49:53.767Z,17.85
2022-10-24T17:54:57.577Z,17.65
2022-10-24T17:57:26.244Z,18.83
2022-10-24T17:59:54.659Z,19.08
2022-10-24T18:02:25.620Z,17.60
2022-10-24T18:07:23.302Z,20.45
2022-10-24T18:10:03.752Z,19.73
2022-10-24T18:12:34.668Z,19.42
2022-10-24T18:15:03.028Z,16.17
2022-10-24T18:17:31.177Z,17.27
2022-10-24T18:20:00.764Z,23.40
2022-10-24T18:22:31.300Z,18.60
2022-10-24T18:24:59.473Z,19.45
2022-10-24T18:27:27.806Z,17.42
2022-10-24T18:29:56.014Z,19.33
2022-10-24T18:32:24.247Z,18.58
2022-10-24T18:34:52.607Z,16.50
2022-10-24T18:37:22.341Z,18.75
2022-10-24T18:39:51.943Z,21.00
2022-10-24T18:42:26.686Z,16.60
2022-10-24T18:44:55.865Z,17.33
2022-10-24T18:47:25.815Z,17.45
2022-10-24T18:49:54.697Z,17.67
2022-10-24T18:52:37.691Z,18.65
2022-10-24T18:55:14.957Z,15.80
2022-10-24T18:57:43.504Z,16.85
2022-10-24T19:00:15.365Z,17.85
2022-10-24T19:02:49.701Z,18.30
2022-10-24T19:05:22.479Z,15.85
2022-10-24T19:07:55.572Z,17.05
2022-10-24T19:10:28.308Z,17.10
2022-10-24T19:12:57.425Z,18.20
2022-10-24T19:15:26.514Z,17.70
2022-10-24T19:17:54.714Z,17.92
2022-10-24T19:20:24.538Z,16.60
2022-10-24T19:22:57.972Z,16.02
2022-10-24T19:25:26.128Z,17.65
2022-10-24T19:27:54.525Z,18.35
2022-10-24T19:30:22.798Z,16.52
2022-10-24T19:32:50.894Z,16.05
2022-10-24T19:35:19.189Z,15.57
2022-10-24T19:37:47.856Z,17.55
2022-10-24T19:40:17.907Z,14.93
2022-10-24T19:42:46.063Z,17.65
2022-10-24T19:45:14.198Z,16.13
2022-10-24T19:47:46.819Z,16.85
2022-10-24T19:50:15.285Z,15.73
2022-10-24T19:52:43.471Z,17.85
2022-10-24T19:55:11.934Z,18.02
2022-10-24T19:57:41.494Z,16.25
2022-10-24T20:00:15.769Z,17.65
2022-10-24T20:02:44.140Z,15.93
2022-10-24T20:05:12.636Z,15.90
2022-10-24T20:07:40.741Z,17.13
2022-10-24T20:10:09.616Z,17.38
2022-10-24T20:12:39.457Z,16.02
2022-10-24T20:15:10.502Z,14.40
2022-10-24T20:17:41.216Z,15.93
2022-10-24T20:20:11.334Z,17.65
2022-10-24T20:22:39.821Z,14.37
2022-10-24T20:25:08.722Z,17.17
2022-10-24T20:27:38.836Z,14.18
2022-10-24T20:30:11.854Z,15.30
2022-10-24T20:32:40.032Z,14.40
2022-10-24T20:35:09.138Z,17.50
2022-10-24T20:37:37.474Z,15.20
2022-10-24T20:40:09.843Z,16.02
2022-10-24T20:42:38.086Z,14.57
2022-10-24T20:45:08.970Z,13.60
2022-10-24T20:50:05.596Z,16.20
2022-10-24T20:52:33.790Z,17.42
2022-10-24T20:55:07.596Z,16.90
2022-10-24T21:00:14.201Z,13.18
2022-10-24T21:02:42.371Z,14.70
2022-10-24T21:05:11.440Z,15.55
2022-10-24T21:07:42.432Z,16.50
2022-10-24T21:12:41.652Z,13.57
2022-10-24T21:15:13.930Z,14.85
2022-10-24T21:17:42.236Z,14.23
2022-10-24T21:20:11.901Z,16.30
2022-10-24T21:22:40.057Z,14.20
2022-10-24T21:25:08.789Z,14.95
2022-10-24T21:27:42.946Z,15.63
2022-10-24T21:30:14.766Z,14.43
2022-10-24T21:32:43.337Z,14.68
2022-10-24T21:35:18.912Z,14.85
2022-10-24T21:37:47.422Z,15.25
2022-10-24T21:40:18.211Z,13.13
2022-10-24T21:42:47.020Z,14.43
2022-10-24T21:45:16.955Z,13.95
2022-10-24T21:47:45.133Z,13.82
2022-10-24T21:50:19.444Z,13.57
2022-10-24T21:52:47.865Z,12.80
2022-10-24T21:55:16.395Z,13.65
2022-10-24T21:57:44.583Z,13.25
2022-10-24T22:00:14.349Z,12.43
2022-10-24T22:02:43.989Z,15.45
2022-10-24T22:05:12.373Z,13.20
2022-10-24T22:07:40.516Z,13.43
2022-10-24T22:10:10.140Z,14.05
2022-10-24T22:12:38.358Z,15.35
2022-10-24T22:15:10.183Z,14.43
2022-10-24T22:17:38.366Z,14.68
2022-10-24T22:20:08.936Z,13.93
2022-10-24T22:22:37.111Z,12.93
2022-10-24T22:25:05.956Z,15.13
2022-10-24T22:27:34.109Z,12.30
2022-10-24T22:30:02.278Z,14.73
2022-10-24T22:32:30.739Z,13.80
2022-10-24T22:35:13.943Z,13.85
2022-10-24T22:37:42.857Z,12.95
2022-10-24T22:40:22.074Z,13.52
2022-10-24T22:42:50.732Z,14.23
2022-10-24T22:45:22.784Z,13.02
2022-10-24T22:48:12.337Z,13.98
2022-10-24T22:50:53.199Z,13.60
2022-10-24T22:53:23.013Z,12.80
2022-10-24T22:56:03.908Z,14.55
2022-10-24T22:58:32.730Z,13.05
2022-10-24T23:01:05.902Z,13.20
2022-10-24T23:03:56.545Z,13.45
2022-10-24T23:06:34.959Z,13.55
2022-10-24T23:09:03.113Z,13.13
2022-10-24T23:16:56.708Z,13.40
2022-10-24T23:19:27.132Z,12.57
2022-10-24T23:21:59.751Z,13.20
2022-10-24T23:24:34.619Z,11.95
2022-10-24T23:27:18.350Z,12.50
2022-10-24T23:29:48.393Z,13.32
2022-10-24T23:32:22.549Z,13.90
2022-10-24T23:34:51.348Z,12.43
2022-10-24T23:37:34.087Z,13.07
2022-10-24T23:40:05.574Z,12.88
2022-10-24T23:42:36.958Z,11.45
2022-10-24T23:45:06.135Z,12.30
2022-10-24T23:47:57.508Z,10.13
2022-10-24T23:50:32.482Z,11.48
2022-10-24T23:53:13.875Z,12.65
2022-10-24T23:55:42.585Z,14.07
2022-10-24T23:58:12.094Z,12.15
